Mashua Bluu — 9HB3690 — position and weather

sailwx.info

Track history (hours):
 
Tides and Currents Weather Stations Pressure Air Temp Water Temp Dewpoint Dewpoint Depression Visibility Wind Speed Wind Dir Waves Ship Positions

Mashua Bluu

Last reported at 2017-Sep-20 12:21 UTC. Time now 2017-Oct-20 10:56 UTC.
Position N 39°34' E 002°38'.
Warning: this ship's position is 29 days out of date.

Length 30 m; draft 2 m.

Type: Sailing vessel. MMSI: 248000319.

Date/timePositionNaut miles runAvg speedWind from/ knotsBaromVisibWave heightAir tempDewpointWater temp
2017-Sep-20 12:21N 39°34' E 002°38'0 0.0
2017-Sep-20 12:00N 39°34' E 002°38'0 0.0
2017-Sep-20 11:30N 39°34' E 002°38'0 0.0
2017-Sep-20 11:00N 39°34' E 002°38'1 2.3
2017-Sep-20 10:30N 39°33' E 002°39'4 6.9
2017-Sep-20 09:54N 39°29' E 002°41'  
2017-Sep-14 23:47N 38°15' E 015°41'2 8.7
2017-Sep-14 23:29N 38°14' E 015°38'4 8.1
2017-Sep-14 23:00N 38°10' E 015°37'  
Track history (hours):
 
Tides and Currents Weather Stations Pressure Air Temp Water Temp Dewpoint Dewpoint Depression Visibility Wind Speed Wind Dir Waves Ship Positions

Mashua Bluu

Last reported at 2017-Sep-20 12:21 UTC. Time now 2017-Oct-20 10:56 UTC.
Position N 39°34' E 002°38'.
Warning: this ship's position is 29 days out of date.

Length 30 m; draft 2 m.

Type: Sailing vessel. MMSI: 248000319.

Date/timePositionNaut miles runAvg speedWind from/ knotsBaromVisibWave heightAir tempDewpointWater temp
2017-Sep-20 12:21N 39°34' E 002°38'0 0.0
2017-Sep-20 12:00N 39°34' E 002°38'0 0.0
2017-Sep-20 11:30N 39°34' E 002°38'0 0.0
2017-Sep-20 11:00N 39°34' E 002°38'1 2.3
2017-Sep-20 10:30N 39°33' E 002°39'4 6.9
2017-Sep-20 09:54N 39°29' E 002°41'  
2017-Sep-14 23:47N 38°15' E 015°41'2 8.7
2017-Sep-14 23:29N 38°14' E 015°38'4 8.1
2017-Sep-14 23:00N 38°10' E 015°37'  

Dump ship's entire track history